createdAt,value
2018-12-27T00:00:50.570Z,88.02
2018-12-27T00:01:50.556Z,87.40
2018-12-27T00:02:54.902Z,87.40
2018-12-27T00:03:50.699Z,87.60
2018-12-27T00:04:50.636Z,89.67
2018-12-27T00:05:50.545Z,87.30
2018-12-27T00:06:50.801Z,88.95
2018-12-27T00:07:50.508Z,87.92
2018-12-27T00:08:50.477Z,88.33
2018-12-27T00:09:50.469Z,88.12
2018-12-27T00:10:50.530Z,87.71
2018-12-27T00:11:50.812Z,89.36
2018-12-27T00:12:50.467Z,88.95
2018-12-27T00:13:50.431Z,88.02
2018-12-27T00:14:50.419Z,87.40
2018-12-27T00:15:50.407Z,87.09
2018-12-27T00:16:50.394Z,88.95
2018-12-27T00:17:50.438Z,88.53
2018-12-27T00:18:50.376Z,87.67
2018-12-27T00:19:50.362Z,88.33
2018-12-27T00:20:50.358Z,87.71
2018-12-27T00:21:50.338Z,87.92
2018-12-27T00:22:50.362Z,86.85
2018-12-27T00:23:50.328Z,87.09
2018-12-27T00:24:50.312Z,87.30
2018-12-27T00:25:50.309Z,88.02
2018-12-27T00:26:50.292Z,88.12
2018-12-27T00:27:50.311Z,87.60
2018-12-27T00:28:50.267Z,88.02
2018-12-27T00:29:50.285Z,88.02
2018-12-27T00:30:50.247Z,89.05
2018-12-27T00:31:50.259Z,88.90
2018-12-27T00:32:50.252Z,88.12
2018-12-27T00:33:50.246Z,86.16
2018-12-27T00:34:50.205Z,87.60
2018-12-27T00:35:50.201Z,88.02
2018-12-27T00:36:50.195Z,88.23
2018-12-27T00:37:50.204Z,88.95
2018-12-27T00:38:51.537Z,87.51
2018-12-27T00:39:50.176Z,88.02
2018-12-27T00:40:50.149Z,88.95
2018-12-27T00:41:50.131Z,89.56
2018-12-27T00:42:50.179Z,88.43
2018-12-27T00:43:50.122Z,87.36
2018-12-27T00:44:50.110Z,87.40
2018-12-27T00:45:50.092Z,88.12
2018-12-27T00:46:50.081Z,88.02
2018-12-27T00:47:50.090Z,87.51
2018-12-27T00:48:50.055Z,87.71
2018-12-27T00:49:50.047Z,88.02
2018-12-27T00:50:50.042Z,88.02
2018-12-27T00:51:50.032Z,89.15
2018-12-27T00:52:50.015Z,89.56
2018-12-27T00:53:50.021Z,87.67
2018-12-27T00:54:50.031Z,87.19
2018-12-27T00:55:49.989Z,87.60
2018-12-27T00:56:49.976Z,87.60
2018-12-27T00:57:49.961Z,88.02
2018-12-27T00:58:49.988Z,89.67
2018-12-27T00:59:49.934Z,89.22
2018-12-27T01:00:49.924Z,88.08
2018-12-27T01:01:49.912Z,87.57
2018-12-27T01:02:49.915Z,88.08
2018-12-27T01:03:49.898Z,87.98
2018-12-27T01:04:49.950Z,87.77
2018-12-27T01:05:49.868Z,86.54
2018-12-27T01:06:49.861Z,87.26
2018-12-27T01:07:49.853Z,88.08
2018-12-27T01:08:49.850Z,86.23
2018-12-27T01:09:49.835Z,85.51
2018-12-27T01:10:49.867Z,85.30
2018-12-27T01:11:49.806Z,86.88
2018-12-27T01:12:49.794Z,87.98
2018-12-27T01:13:49.792Z,87.98
2018-12-27T01:14:49.773Z,87.26
2018-12-27T01:15:49.768Z,86.13
2018-12-27T01:16:49.779Z,86.54
2018-12-27T01:17:49.749Z,85.71
2018-12-27T01:18:49.739Z,86.54
2018-12-27T01:19:49.723Z,87.42
2018-12-27T01:20:49.713Z,86.43
2018-12-27T01:21:49.728Z,85.51
2018-12-27T01:22:49.693Z,84.79
2018-12-27T01:23:49.675Z,84.58
2018-12-27T01:24:49.668Z,84.99
2018-12-27T01:25:49.656Z,85.96
2018-12-27T01:26:49.672Z,85.71
2018-12-27T01:27:49.639Z,85.96
2018-12-27T01:28:49.630Z,87.51
2018-12-27T01:29:49.619Z,87.09
2018-12-27T01:30:49.607Z,88.23
2018-12-27T01:31:50.707Z,87.57
2018-12-27T01:32:49.591Z,86.23
2018-12-27T01:33:49.572Z,86.37
2018-12-27T01:34:49.560Z,86.16
2018-12-27T01:35:49.554Z,87.15
2018-12-27T01:36:49.578Z,88.53
2018-12-27T01:37:49.527Z,86.37
2018-12-27T01:38:49.517Z,87.09
2018-12-27T01:39:49.529Z,85.51
2018-12-27T01:40:49.503Z,86.16
2018-12-27T01:41:49.490Z,87.19
2018-12-27T01:42:49.499Z,87.05
2018-12-27T01:43:49.462Z,86.37
2018-12-27T01:44:49.456Z,86.99
2018-12-27T01:45:49.452Z,87.30
2018-12-27T01:46:49.430Z,86.31
2018-12-27T01:47:49.446Z,88.26
2018-12-27T01:48:49.422Z,87.65
2018-12-27T01:49:49.404Z,87.30
2018-12-27T01:50:49.396Z,87.71
2018-12-27T01:51:49.375Z,88.23
2018-12-27T01:52:49.395Z,87.81
2018-12-27T01:53:49.366Z,86.02
2018-12-27T01:54:49.354Z,87.30
2018-12-27T01:55:49.335Z,86.58
2018-12-27T01:56:49.323Z,86.37
2018-12-27T01:57:49.334Z,85.75
2018-12-27T01:58:49.302Z,86.58
2018-12-27T01:59:49.298Z,86.99
2018-12-27T02:00:49.285Z,87.51
2018-12-27T02:01:49.281Z,88.08
2018-12-27T02:02:49.296Z,87.40
2018-12-27T02:03:49.255Z,85.44
2018-12-27T02:04:49.241Z,86.13
2018-12-27T02:05:49.227Z,85.96
2018-12-27T02:06:49.215Z,87.60
2018-12-27T02:07:49.211Z,87.98
2018-12-27T02:08:49.225Z,87.67
2018-12-27T02:09:49.182Z,85.30
2018-12-27T02:10:49.174Z,84.89
2018-12-27T02:11:49.169Z,85.14
2018-12-27T02:12:49.156Z,85.44
2018-12-27T02:13:49.188Z,86.16
2018-12-27T02:14:49.137Z,86.23
2018-12-27T02:15:49.120Z,86.02
2018-12-27T02:16:49.107Z,86.95
2018-12-27T02:17:49.112Z,85.92
2018-12-27T02:18:49.088Z,85.98
2018-12-27T02:19:49.114Z,84.48
2018-12-27T02:20:49.078Z,84.79
2018-12-27T02:21:49.062Z,85.51
2018-12-27T02:22:49.052Z,85.20
2018-12-27T02:23:49.033Z,84.95
2018-12-27T02:24:49.023Z,83.86
2018-12-27T02:25:49.066Z,83.55
2018-12-27T02:26:49.008Z,84.13
2018-12-27T02:27:48.993Z,84.75
2018-12-27T02:28:48.983Z,83.92
2018-12-27T02:29:48.972Z,83.35
2018-12-27T02:30:48.960Z,84.17
2018-12-27T02:31:48.998Z,83.83
2018-12-27T02:32:48.946Z,83.14
2018-12-27T02:33:48.935Z,85.61
2018-12-27T02:34:48.936Z,84.79
2018-12-27T02:35:48.906Z,84.17
2018-12-27T02:36:48.942Z,84.38
2018-12-27T02:37:48.888Z,83.45
2018-12-27T02:38:48.879Z,83.97
2018-12-27T02:39:48.871Z,84.03
2018-12-27T02:40:48.862Z,83.20
2018-12-27T02:41:48.841Z,82.83
2018-12-27T02:42:48.862Z,82.53
2018-12-27T02:43:48.832Z,83.25
2018-12-27T02:44:48.819Z,83.45
2018-12-27T02:45:48.806Z,83.86
2018-12-27T02:46:48.797Z,84.48
2018-12-27T02:47:48.783Z,82.83
2018-12-27T02:48:48.798Z,83.76
2018-12-27T02:49:48.760Z,83.65
2018-12-27T02:50:48.772Z,83.55
2018-12-27T02:51:57.815Z,83.14
2018-12-27T02:52:48.735Z,83.14
2018-12-27T02:53:48.716Z,83.45
2018-12-27T02:54:48.753Z,82.77
2018-12-27T02:55:48.708Z,82.93
2018-12-27T02:56:48.687Z,83.18
2018-12-27T02:57:48.688Z,83.80
2018-12-27T02:58:48.662Z,83.59
2018-12-27T02:59:48.670Z,83.80
2018-12-27T03:00:48.647Z,84.11
2018-12-27T03:01:48.642Z,84.62
2018-12-27T03:02:48.623Z,84.72
2018-12-27T03:03:48.615Z,83.90
2018-12-27T03:04:48.606Z,84.56
2018-12-27T03:05:48.613Z,84.45
2018-12-27T03:06:48.575Z,84.35
2018-12-27T03:07:48.570Z,84.97
2018-12-27T03:08:48.554Z,84.77
2018-12-27T03:09:48.552Z,84.45
2018-12-27T03:10:48.568Z,84.49
2018-12-27T03:11:48.521Z,84.87
2018-12-27T03:12:48.513Z,85.17
2018-12-27T03:13:48.513Z,85.01
2018-12-27T03:14:48.503Z,85.94
2018-12-27T03:15:48.489Z,85.69
2018-12-27T03:16:48.505Z,85.22
2018-12-27T03:17:48.455Z,85.83
2018-12-27T03:18:48.445Z,85.63
2018-12-27T03:19:48.443Z,85.83
2018-12-27T03:20:48.426Z,86.15
2018-12-27T03:21:48.457Z,85.97
2018-12-27T03:22:48.419Z,86.18
2018-12-27T03:23:55.320Z,86.04
2018-12-27T03:24:48.392Z,86.35
2018-12-27T03:25:48.372Z,85.94
2018-12-27T03:26:48.363Z,86.04
2018-12-27T03:27:48.381Z,85.73
2018-12-27T03:28:48.350Z,85.52
2018-12-27T03:29:48.330Z,85.83
2018-12-27T03:30:48.351Z,85.83
2018-12-27T03:31:48.311Z,85.11
2018-12-27T03:32:48.300Z,85.01
2018-12-27T03:33:52.617Z,85.22
2018-12-27T03:34:48.289Z,85.15
2018-12-27T03:35:48.319Z,85.77
2018-12-27T03:36:48.263Z,85.67
2018-12-27T03:37:48.243Z,85.87
2018-12-27T03:38:48.234Z,85.52
2018-12-27T03:39:48.223Z,85.52
2018-12-27T03:40:48.216Z,86.04
2018-12-27T03:41:48.238Z,85.83
2018-12-27T03:42:48.199Z,85.11
2018-12-27T03:43:48.185Z,84.70
2018-12-27T03:44:48.170Z,85.01
2018-12-27T03:45:48.166Z,85.22
2018-12-27T03:46:48.179Z,85.01
2018-12-27T03:47:48.144Z,84.70
2018-12-27T03:48:48.133Z,84.91
2018-12-27T03:49:48.121Z,84.19
2018-12-27T03:50:48.110Z,84.70
2018-12-27T03:51:48.115Z,84.29
2018-12-27T03:52:48.088Z,84.49
2018-12-27T03:53:48.081Z,84.70
2018-12-27T03:54:48.077Z,84.70
2018-12-27T03:55:48.060Z,84.05
2018-12-27T03:56:48.078Z,84.70
2018-12-27T03:57:48.032Z,84.59
2018-12-27T03:58:48.024Z,84.80
2018-12-27T03:59:48.019Z,84.91
2018-12-27T04:00:48.008Z,84.19
2018-12-27T04:01:48.011Z,84.91
2018-12-27T04:02:47.980Z,84.49
2018-12-27T04:03:47.968Z,85.15
2018-12-27T04:04:47.956Z,85.22
2018-12-27T04:05:48.042Z,85.11
2018-12-27T04:06:47.966Z,84.59
2018-12-27T04:07:47.934Z,84.39
2018-12-27T04:08:47.919Z,84.39
2018-12-27T04:09:47.987Z,84.59
2018-12-27T04:10:47.894Z,84.39
2018-12-27T04:11:47.921Z,84.08
2018-12-27T04:12:47.875Z,83.98
2018-12-27T04:13:47.865Z,84.39
2018-12-27T04:14:47.862Z,83.67
2018-12-27T04:15:47.839Z,84.19
2018-12-27T04:16:47.829Z,84.43
2018-12-27T04:17:47.860Z,84.84
2018-12-27T04:18:47.812Z,85.15
2018-12-27T04:19:47.801Z,84.39
2018-12-27T04:20:47.791Z,84.64
2018-12-27T04:21:47.774Z,84.49
2018-12-27T04:22:47.767Z,83.98
2018-12-27T04:23:47.779Z,84.08
2018-12-27T04:24:47.745Z,83.98
2018-12-27T04:25:47.736Z,83.77
2018-12-27T04:26:47.730Z,83.47
2018-12-27T04:27:47.716Z,84.19
2018-12-27T04:28:47.728Z,84.08
2018-12-27T04:29:47.694Z,84.08
2018-12-27T04:30:47.678Z,84.08
2018-12-27T04:31:47.678Z,84.39
2018-12-27T04:32:47.686Z,84.08
2018-12-27T04:33:47.647Z,84.19
2018-12-27T04:34:47.669Z,83.98
2018-12-27T04:35:47.626Z,83.91
2018-12-27T04:36:47.613Z,83.98
2018-12-27T04:37:47.611Z,83.98
2018-12-27T04:38:47.597Z,83.61
2018-12-27T04:39:47.600Z,84.01
2018-12-27T04:40:47.603Z,84.74
2018-12-27T04:41:47.569Z,84.33
2018-12-27T04:42:47.565Z,84.64
2018-12-27T04:43:47.540Z,84.53
2018-12-27T04:44:47.531Z,85.15
2018-12-27T04:45:47.550Z,85.05
2018-12-27T04:46:47.517Z,84.74
2018-12-27T04:47:47.497Z,84.94
2018-12-27T04:48:47.485Z,84.99
2018-12-27T04:49:47.481Z,84.94
2018-12-27T04:50:47.491Z,84.94
2018-12-27T04:51:47.460Z,84.84
2018-12-27T04:52:47.449Z,84.53
2018-12-27T04:53:47.437Z,84.74
2018-12-27T04:54:47.447Z,84.43
2018-12-27T04:55:47.411Z,85.09
2018-12-27T04:56:47.401Z,84.84
2018-12-27T04:57:47.405Z,84.57
2018-12-27T04:58:47.386Z,84.36
2018-12-27T04:59:47.396Z,84.57
2018-12-27T05:00:47.389Z,83.85
2018-12-27T05:01:47.381Z,84.06
2018-12-27T05:02:47.334Z,84.78
2018-12-27T05:03:47.335Z,84.67
2018-12-27T05:04:47.319Z,83.54
2018-12-27T05:05:47.304Z,83.23
2018-12-27T05:06:47.298Z,83.40
2018-12-27T05:07:47.304Z,83.81
2018-12-27T05:08:47.275Z,83.61
2018-12-27T05:09:47.269Z,83.33
2018-12-27T05:10:47.256Z,83.29
2018-12-27T05:11:47.279Z,83.09
2018-12-27T05:12:47.246Z,83.09
2018-12-27T05:13:47.220Z,82.68
2018-12-27T05:14:47.209Z,82.98
2018-12-27T05:15:47.203Z,82.06
2018-12-27T05:16:47.191Z,82.16
2018-12-27T05:17:47.214Z,82.06
2018-12-27T05:18:47.172Z,82.26
2018-12-27T05:19:47.154Z,81.54
2018-12-27T05:22:04.208Z,81.79
2018-12-27T05:23:04.217Z,81.34
2018-12-27T05:24:04.188Z,81.34
2018-12-27T05:25:13.729Z,81.85
2018-12-27T05:26:04.166Z,81.48
2018-12-27T05:27:12.727Z,81.65
2018-12-27T05:28:04.147Z,81.54
2018-12-27T05:29:04.161Z,81.58
2018-12-27T05:30:04.124Z,81.03
2018-12-27T05:31:04.108Z,81.03
2018-12-27T05:32:04.093Z,81.03
2018-12-27T05:33:04.100Z,80.55
2018-12-27T05:34:04.077Z,80.55
2018-12-27T05:35:04.091Z,81.65
2018-12-27T05:36:13.009Z,80.34
2018-12-27T05:37:04.048Z,80.72
2018-12-27T05:38:04.096Z,80.72
2018-12-27T05:39:04.022Z,81.03
2018-12-27T05:40:04.006Z,80.82
2018-12-27T05:41:04.086Z,80.30
2018-12-27T05:42:03.987Z,80.10
2018-12-27T05:43:04.003Z,79.38
2018-12-27T05:44:03.973Z,79.48
2018-12-27T05:45:03.963Z,79.00
2018-12-27T05:46:03.951Z,79.38
2018-12-27T05:47:03.930Z,79.52
2018-12-27T05:48:03.950Z,79.52
2018-12-27T05:49:03.913Z,79.72
2018-12-27T05:50:03.898Z,79.62
2018-12-27T05:51:03.898Z,79.62
2018-12-27T05:52:03.885Z,79.52
2018-12-27T05:53:03.866Z,79.41
2018-12-27T05:54:03.887Z,79.93
2018-12-27T05:55:03.885Z,79.83
2018-12-27T05:56:03.840Z,80.34
2018-12-27T05:57:03.835Z,80.14
2018-12-27T05:58:03.820Z,80.10
2018-12-27T05:59:03.886Z,79.52
2018-12-27T06:00:04.078Z,80.00
2018-12-27T06:01:03.790Z,79.93
2018-12-27T06:02:03.769Z,79.52
2018-12-27T06:03:03.764Z,80.04
2018-12-27T06:04:03.760Z,80.55
2018-12-27T06:05:03.744Z,80.86
2018-12-27T06:06:03.752Z,79.72
2018-12-27T06:07:03.749Z,79.79
2018-12-27T06:08:03.711Z,79.90
2018-12-27T06:09:03.700Z,79.58
2018-12-27T06:10:03.726Z,79.93
2018-12-27T06:11:03.717Z,78.80
2018-12-27T06:12:03.665Z,79.00
2018-12-27T06:13:03.734Z,79.31
2018-12-27T06:14:03.671Z,79.62
2018-12-27T06:15:03.639Z,79.52
2018-12-27T06:16:03.646Z,80.04
2018-12-27T06:17:03.616Z,80.18
2018-12-27T06:18:03.604Z,79.66
2018-12-27T06:19:03.588Z,79.66
2018-12-27T06:20:03.602Z,79.45
2018-12-27T06:21:03.587Z,79.41
2018-12-27T06:22:03.555Z,79.72
2018-12-27T06:23:03.553Z,79.21
2018-12-27T06:24:03.537Z,79.11
2018-12-27T06:25:03.550Z,79.00
2018-12-27T06:26:03.531Z,79.00
2018-12-27T06:27:03.507Z,78.28
2018-12-27T06:28:03.498Z,78.94
2018-12-27T06:29:03.504Z,79.14
2018-12-27T06:30:04.175Z,78.42
2018-12-27T06:31:09.484Z,79.25
2018-12-27T06:32:03.454Z,78.69
2018-12-27T06:33:03.444Z,78.94
2018-12-27T06:34:03.434Z,79.00
2018-12-27T06:35:03.427Z,79.25
2018-12-27T06:36:03.432Z,78.59
2018-12-27T06:37:03.404Z,79.14
2018-12-27T06:38:03.414Z,79.14
2018-12-27T06:39:03.374Z,79.41
2018-12-27T06:40:03.361Z,79.04
2018-12-27T06:41:03.357Z,79.25
2018-12-27T06:42:03.369Z,79.04
2018-12-27T06:43:03.331Z,79.45
2018-12-27T06:44:03.317Z,79.62
2018-12-27T06:45:03.309Z,79.97
2018-12-27T06:46:03.296Z,78.94
2018-12-27T06:47:03.315Z,78.73
2018-12-27T06:48:03.282Z,78.52
2018-12-27T06:49:03.273Z,77.80
2018-12-27T06:50:03.264Z,77.22
2018-12-27T06:51:03.271Z,77.32
2018-12-27T06:52:03.253Z,77.63
2018-12-27T06:53:03.220Z,78.35
2018-12-27T06:54:03.213Z,76.39
2018-12-27T06:55:03.206Z,76.29
2018-12-27T06:56:03.213Z,76.08
2018-12-27T06:57:03.178Z,74.74
2018-12-27T06:58:03.188Z,75.36
2018-12-27T06:59:03.175Z,74.43
2018-12-27T07:00:03.183Z,74.02
2018-12-27T07:01:03.144Z,73.74
2018-12-27T07:02:03.136Z,74.36
2018-12-27T07:03:03.143Z,74.46
2018-12-27T07:04:03.104Z,74.15
2018-12-27T07:05:03.098Z,73.22
2018-12-27T07:06:03.081Z,71.57
2018-12-27T07:07:03.078Z,71.67
2018-12-27T07:08:03.101Z,71.16
2018-12-27T07:09:03.056Z,70.95
2018-12-27T07:10:03.045Z,70.54
2018-12-27T07:11:03.029Z,69.61
2018-12-27T07:12:03.024Z,69.43
2018-12-27T07:13:03.021Z,70.29
2018-12-27T07:14:03.036Z,70.19
2018-12-27T07:15:02.999Z,70.57
2018-12-27T07:16:02.982Z,70.71
2018-12-27T07:17:02.965Z,70.98
2018-12-27T07:18:02.954Z,70.67
2018-12-27T07:19:02.966Z,70.71
2018-12-27T07:20:02.940Z,70.78
2018-12-27T07:21:02.923Z,70.98
2018-12-27T07:22:02.927Z,71.02
2018-12-27T07:23:02.923Z,71.09
2018-12-27T07:24:02.887Z,71.50
2018-12-27T07:25:02.880Z,71.22
2018-12-27T07:26:02.866Z,71.84
2018-12-27T07:27:02.862Z,71.95
2018-12-27T07:28:02.875Z,72.02
2018-12-27T07:29:02.833Z,71.81
2018-12-27T07:30:02.828Z,71.71
2018-12-27T07:31:02.818Z,71.92
2018-12-27T07:32:02.805Z,71.92
2018-12-27T07:33:04.226Z,72.05
2018-12-27T07:34:02.783Z,71.84
2018-12-27T07:35:02.770Z,72.43
2018-12-27T07:36:02.775Z,71.81
2018-12-27T07:37:02.746Z,72.43
2018-12-27T07:38:02.735Z,73.16
2018-12-27T07:39:02.732Z,72.33
2018-12-27T07:40:02.719Z,71.81
2018-12-27T07:41:02.730Z,72.12
2018-12-27T07:42:02.699Z,71.71
2018-12-27T07:43:02.682Z,72.43
2018-12-27T07:44:02.670Z,72.85
2018-12-27T07:45:02.670Z,72.67
2018-12-27T07:46:02.710Z,73.05
2018-12-27T07:47:02.642Z,73.16
2018-12-27T07:48:02.632Z,72.95
2018-12-27T07:49:02.615Z,73.05
2018-12-27T07:50:02.603Z,72.95
2018-12-27T07:51:02.606Z,73.08
2018-12-27T07:52:02.624Z,73.81
2018-12-27T07:53:02.579Z,74.29
2018-12-27T07:54:02.570Z,73.81
2018-12-27T07:55:02.555Z,73.67
2018-12-27T07:56:02.537Z,74.43
2018-12-27T07:57:02.528Z,74.81
2018-12-27T07:58:02.542Z,74.50
2018-12-27T07:59:02.536Z,74.40
2018-12-27T08:00:02.513Z,74.57
2018-12-27T08:01:02.494Z,75.32
2018-12-27T08:02:02.495Z,75.49
2018-12-27T08:03:02.470Z,75.09
2018-12-27T08:04:02.495Z,74.26
2018-12-27T08:05:04.120Z,74.67
2018-12-27T08:06:02.435Z,74.57
2018-12-27T08:07:02.419Z,74.67
2018-12-27T08:08:02.413Z,75.49
2018-12-27T08:09:02.402Z,75.91
2018-12-27T08:10:02.407Z,75.81
2018-12-27T08:11:02.386Z,76.43
2018-12-27T08:12:02.421Z,76.73
2018-12-27T08:13:02.361Z,76.22
2018-12-27T08:14:02.373Z,74.95
2018-12-27T08:15:02.335Z,75.05
2018-12-27T08:16:02.323Z,74.98
2018-12-27T08:17:02.330Z,74.98
2018-12-27T08:18:02.308Z,75.81
2018-12-27T08:19:02.314Z,75.81
2018-12-27T08:20:02.279Z,75.39
2018-12-27T08:21:02.288Z,75.70
2018-12-27T08:22:02.259Z,75.81
2018-12-27T08:23:02.257Z,75.91
2018-12-27T08:24:02.267Z,75.91
2018-12-27T08:25:02.275Z,75.91
2018-12-27T08:26:02.225Z,75.70
2018-12-27T08:27:02.204Z,76.18
2018-12-27T08:28:02.203Z,76.22
2018-12-27T08:29:02.201Z,76.22
2018-12-27T08:30:02.194Z,76.53
2018-12-27T08:31:02.174Z,76.73
2018-12-27T08:32:02.156Z,77.04
2018-12-27T08:33:02.139Z,77.32
2018-12-27T08:34:02.157Z,77.32
2018-12-27T08:35:02.128Z,77.42
2018-12-27T08:36:02.202Z,76.94
2018-12-27T08:37:02.108Z,77.36
2018-12-27T08:38:02.094Z,77.11
2018-12-27T08:39:02.085Z,77.36
2018-12-27T08:40:02.069Z,77.98
2018-12-27T08:41:02.091Z,77.77
2018-12-27T08:42:02.052Z,78.28
2018-12-27T08:43:02.043Z,78.91
2018-12-27T08:44:02.029Z,78.80
2018-12-27T08:45:02.020Z,79.01
2018-12-27T08:46:02.007Z,78.80
2018-12-27T08:47:02.028Z,78.91
2018-12-27T08:48:01.981Z,79.11
2018-12-27T08:49:01.975Z,78.91
2018-12-27T08:50:01.966Z,79.32
2018-12-27T08:51:01.950Z,78.91
2018-12-27T08:52:01.936Z,79.63
2018-12-27T08:53:01.947Z,79.77
2018-12-27T08:54:01.919Z,79.66
2018-12-27T08:55:01.933Z,79.66
2018-12-27T08:56:01.899Z,79.97
2018-12-27T08:57:01.892Z,80.18
2018-12-27T08:58:01.911Z,80.29
2018-12-27T08:59:01.859Z,79.83
2018-12-27T09:00:01.859Z,80.90
2018-12-27T09:01:01.842Z,80.35
2018-12-27T09:02:01.831Z,80.66
2018-12-27T09:03:01.826Z,80.35
2018-12-27T09:04:01.840Z,80.97
2018-12-27T09:05:01.800Z,80.66
2018-12-27T09:06:01.786Z,80.83
2018-12-27T09:07:01.783Z,80.56
2018-12-27T09:08:01.770Z,80.97
2018-12-27T09:09:01.788Z,81.49
2018-12-27T09:10:01.771Z,81.28
2018-12-27T09:11:01.734Z,80.97
2018-12-27T09:12:01.722Z,81.42
2018-12-27T09:13:01.713Z,81.84
2018-12-27T09:14:01.735Z,82.25
2018-12-27T09:15:01.698Z,82.66
2018-12-27T09:16:01.688Z,82.35
2018-12-27T09:17:01.676Z,82.35
2018-12-27T09:18:01.664Z,82.87
2018-12-27T09:19:01.646Z,82.56
2018-12-27T09:20:01.660Z,82.87
2018-12-27T09:21:01.628Z,82.25
2018-12-27T09:22:01.617Z,82.45
2018-12-27T09:23:01.604Z,83.80
2018-12-27T09:24:01.597Z,84.21
2018-12-27T09:25:01.622Z,83.28
2018-12-27T09:26:01.570Z,82.97
2018-12-27T09:27:01.648Z,82.45
2018-12-27T09:28:01.554Z,82.76
2018-12-27T09:29:01.549Z,83.07
2018-12-27T09:30:01.564Z,83.18
2018-12-27T09:31:01.520Z,82.87
2018-12-27T09:32:01.506Z,82.56
2018-12-27T09:33:01.497Z,82.83
2018-12-27T09:34:01.484Z,82.25
2018-12-27T09:35:01.510Z,82.21
2018-12-27T09:36:01.469Z,82.21
2018-12-27T09:37:01.466Z,82.31
2018-12-27T09:38:01.444Z,82.00
2018-12-27T09:39:01.435Z,82.42
2018-12-27T09:40:01.427Z,82.31
2018-12-27T09:41:01.436Z,82.42
2018-12-27T09:42:01.405Z,82.62
2018-12-27T09:43:01.402Z,82.42
2018-12-27T09:44:01.381Z,81.70
2018-12-27T09:45:01.367Z,81.70
2018-12-27T09:46:01.384Z,82.28
2018-12-27T09:47:01.350Z,81.49
2018-12-27T09:48:01.342Z,81.56
2018-12-27T09:49:01.329Z,81.49
2018-12-27T09:50:01.319Z,81.76
2018-12-27T09:51:01.321Z,81.56
2018-12-27T09:52:02.282Z,81.59
2018-12-27T09:53:01.292Z,81.56
2018-12-27T09:54:01.277Z,81.66
2018-12-27T09:55:01.268Z,82.17
2018-12-27T09:56:01.270Z,81.66
2018-12-27T09:57:01.236Z,82.69
2018-12-27T09:58:01.230Z,82.10
2018-12-27T09:59:01.220Z,82.17
2018-12-27T10:00:01.224Z,83.04
2018-12-27T10:01:01.233Z,82.93
2018-12-27T10:02:01.190Z,83.14
2018-12-27T10:03:01.173Z,83.45
2018-12-27T10:04:01.167Z,83.45
2018-12-27T10:05:01.195Z,83.65
2018-12-27T10:06:01.171Z,83.25
2018-12-27T10:07:01.137Z,84.31
2018-12-27T10:08:01.125Z,83.49
2018-12-27T10:09:01.108Z,83.70
2018-12-27T10:10:01.101Z,83.90
2018-12-27T10:11:01.098Z,83.86
2018-12-27T10:12:01.105Z,83.70
2018-12-27T10:13:01.070Z,84.00
2018-12-27T10:14:01.061Z,84.28
2018-12-27T10:15:01.113Z,83.86
2018-12-27T10:16:01.031Z,83.34
2018-12-27T10:17:01.062Z,83.76
2018-12-27T10:18:01.014Z,83.76
2018-12-27T10:19:01.007Z,83.76
2018-12-27T10:20:00.996Z,83.83
2018-12-27T10:21:01.029Z,82.79
2018-12-27T10:22:00.974Z,82.69
2018-12-27T10:23:00.985Z,82.07
2018-12-27T10:24:00.968Z,82.17
2018-12-27T10:25:00.942Z,81.66
2018-12-27T10:26:00.929Z,82.17
2018-12-27T10:27:00.917Z,82.62
2018-12-27T10:28:00.905Z,82.48
2018-12-27T10:29:00.917Z,82.07
2018-12-27T10:30:00.904Z,82.17
2018-12-27T10:31:00.878Z,82.38
2018-12-27T10:32:00.866Z,82.38
2018-12-27T10:33:00.863Z,82.17
2018-12-27T10:34:00.848Z,81.80
2018-12-27T10:35:00.857Z,81.86
2018-12-27T10:36:00.821Z,82.48
2018-12-27T10:37:00.810Z,82.69
2018-12-27T10:38:00.800Z,82.69
2018-12-27T10:39:00.794Z,82.73
2018-12-27T10:40:00.811Z,82.73
2018-12-27T10:41:00.763Z,82.79
2018-12-27T10:42:00.755Z,82.28
2018-12-27T10:43:00.748Z,82.38
2018-12-27T10:44:00.738Z,82.28
2018-12-27T10:45:00.735Z,82.69
2018-12-27T10:46:00.737Z,82.28
2018-12-27T10:47:00.701Z,82.28
2018-12-27T10:48:00.703Z,82.28
2018-12-27T10:49:00.676Z,82.69
2018-12-27T10:50:00.668Z,82.79
2018-12-27T10:51:00.684Z,83.04
2018-12-27T10:52:01.629Z,82.79
2018-12-27T10:53:00.641Z,83.34
2018-12-27T10:54:00.636Z,83.86
2018-12-27T10:55:00.613Z,83.20
2018-12-27T10:56:00.634Z,83.41
2018-12-27T10:57:00.613Z,83.10
2018-12-27T10:58:00.586Z,84.38
2018-12-27T10:59:00.596Z,83.51
2018-12-27T11:00:00.562Z,83.10
2018-12-27T11:01:00.546Z,83.20
2018-12-27T11:02:00.559Z,82.69
2018-12-27T11:03:00.534Z,83.00
2018-12-27T11:04:00.522Z,83.20
2018-12-27T11:05:00.515Z,83.62
2018-12-27T11:06:00.536Z,83.62
2018-12-27T11:07:00.485Z,83.72
2018-12-27T11:08:00.477Z,82.89
2018-12-27T11:09:00.463Z,83.51
2018-12-27T11:10:00.467Z,83.20
2018-12-27T11:11:00.470Z,83.72
2018-12-27T11:12:00.435Z,83.93
2018-12-27T11:13:00.423Z,83.83
2018-12-27T11:14:00.430Z,83.97
2018-12-27T11:15:00.413Z,84.34
2018-12-27T11:16:00.416Z,83.93
2018-12-27T11:17:00.388Z,83.65
2018-12-27T11:18:00.377Z,83.93
2018-12-27T11:19:00.382Z,83.97
2018-12-27T11:20:00.343Z,83.00
2018-12-27T11:21:00.334Z,83.10
2018-12-27T11:22:00.324Z,83.31
2018-12-27T11:23:00.318Z,82.89
2018-12-27T11:24:00.340Z,83.41
2018-12-27T11:25:00.307Z,83.41
2018-12-27T11:26:00.286Z,82.34
2018-12-27T11:27:00.269Z,83.00
2018-12-27T11:28:00.259Z,83.93
2018-12-27T11:29:00.287Z,83.62
2018-12-27T11:30:00.242Z,83.20
2018-12-27T11:31:00.229Z,83.31
2018-12-27T11:32:00.214Z,83.41
2018-12-27T11:33:00.207Z,83.37
2018-12-27T11:34:00.193Z,82.55
2018-12-27T11:35:00.213Z,82.86
2018-12-27T11:36:00.179Z,82.34
2018-12-27T11:37:09.082Z,82.45
2018-12-27T11:38:00.149Z,82.55
2018-12-27T11:39:00.143Z,82.45
2018-12-27T11:40:00.158Z,81.93
2018-12-27T11:41:00.148Z,82.65
2018-12-27T11:42:00.127Z,82.24
2018-12-27T11:43:00.136Z,82.65
2018-12-27T11:44:00.086Z,82.45
2018-12-27T11:45:00.154Z,82.40
2018-12-27T11:46:00.095Z,82.20
2018-12-27T11:47:00.058Z,82.20
2018-12-27T11:48:00.048Z,82.51
2018-12-27T11:49:00.034Z,82.10
2018-12-27T11:50:00.043Z,82.30
2018-12-27T11:51:00.031Z,82.20
2018-12-27T11:52:00.002Z,82.20
2018-12-27T11:53:00.018Z,82.61
2018-12-27T11:53:59.987Z,81.27
2018-12-27T11:54:59.974Z,82.51
2018-12-27T11:55:59.984Z,81.99
2018-12-27T11:56:59.966Z,81.68
2018-12-27T11:57:59.937Z,81.72
2018-12-27T11:58:59.934Z,82.96
2018-12-27T11:59:59.920Z,82.96
2018-12-27T12:00:59.937Z,83.58
2018-12-27T12:01:59.892Z,83.68
2018-12-27T12:02:59.880Z,82.75
2018-12-27T12:03:59.874Z,83.78
2018-12-27T12:04:59.866Z,83.17
2018-12-27T12:06:03.366Z,83.06
2018-12-27T12:06:59.870Z,83.06
2018-12-27T12:07:59.839Z,83.54
2018-12-27T12:08:59.818Z,83.13
2018-12-27T12:09:59.807Z,83.06
2018-12-27T12:10:59.839Z,83.13
2018-12-27T12:11:59.784Z,83.37
2018-12-27T12:12:59.779Z,82.86
2018-12-27T12:13:59.821Z,83.85
2018-12-27T12:14:59.823Z,84.20
2018-12-27T12:15:59.741Z,83.99
2018-12-27T12:16:59.758Z,84.41
2018-12-27T12:17:59.732Z,84.09
2018-12-27T12:18:59.719Z,84.92
2018-12-27T12:19:59.710Z,84.81
2018-12-27T12:20:59.705Z,85.17
2018-12-27T12:21:59.700Z,85.85
2018-12-27T12:22:59.688Z,85.33
2018-12-27T12:23:59.665Z,85.64
2018-12-27T12:24:59.658Z,86.26
2018-12-27T12:25:59.640Z,84.81
2018-12-27T12:26:59.660Z,85.95
2018-12-27T12:27:59.620Z,86.05
2018-12-27T12:28:59.632Z,85.02
2018-12-27T12:29:59.594Z,85.95
2018-12-27T12:30:59.589Z,86.16
2018-12-27T12:31:59.618Z,85.75
2018-12-27T12:32:59.579Z,86.68
2018-12-27T12:33:59.550Z,86.47
2018-12-27T12:34:59.536Z,86.47
2018-12-27T12:35:59.528Z,86.36
2018-12-27T12:36:59.520Z,86.16
2018-12-27T12:37:59.546Z,87.50
2018-12-27T12:38:59.499Z,86.16
2018-12-27T12:39:59.489Z,87.23
2018-12-27T12:40:59.472Z,88.06
2018-12-27T12:41:59.464Z,88.06
2018-12-27T12:42:59.450Z,87.65
2018-12-27T12:43:59.462Z,87.19
2018-12-27T12:44:59.456Z,87.19
2018-12-27T12:45:59.423Z,86.41
2018-12-27T12:46:59.428Z,86.88
2018-12-27T12:47:59.396Z,87.19
2018-12-27T12:48:59.392Z,87.29
2018-12-27T12:49:59.403Z,86.36
2018-12-27T12:50:59.369Z,86.47
2018-12-27T12:51:59.362Z,86.26
2018-12-27T12:52:59.344Z,86.43
2018-12-27T12:53:59.333Z,86.26